sensor_id;sensor_type;location;lat;lon;timestamp;temperature;humidity
21214;DHT22;10764;50.850;2.904;2022-07-21T00:01:13;23.80;61.90
21214;DHT22;10764;50.850;2.904;2022-07-21T00:03:40;23.70;61.80
21214;DHT22;10764;50.850;2.904;2022-07-21T00:06:07;23.70;61.80
21214;DHT22;10764;50.850;2.904;2022-07-21T00:08:34;23.80;61.80
21214;DHT22;10764;50.850;2.904;2022-07-21T00:11:01;23.80;61.80
21214;DHT22;10764;50.850;2.904;2022-07-21T00:13:29;23.80;61.80
21214;DHT22;10764;50.850;2.904;2022-07-21T00:15:55;23.70;61.70
21214;DHT22;10764;50.850;2.904;2022-07-21T00:18:23;23.90;61.80
21214;DHT22;10764;50.850;2.904;2022-07-21T00:20:50;23.80;61.70
21214;DHT22;10764;50.850;2.904;2022-07-21T00:23:17;24.00;61.80
21214;DHT22;10764;50.850;2.904;2022-07-21T00:25:44;23.80;61.70
21214;DHT22;10764;50.850;2.904;2022-07-21T00:28:11;23.80;61.70
21214;DHT22;10764;50.850;2.904;2022-07-21T00:30:38;23.40;61.40
21214;DHT22;10764;50.850;2.904;2022-07-21T00:33:05;23.80;61.60
21214;DHT22;10764;50.850;2.904;2022-07-21T00:35:32;23.70;61.60
21214;DHT22;10764;50.850;2.904;2022-07-21T00:37:59;23.80;61.60
21214;DHT22;10764;50.850;2.904;2022-07-21T00:40:26;23.70;61.50
21214;DHT22;10764;50.850;2.904;2022-07-21T00:42:53;23.80;61.60
21214;DHT22;10764;50.850;2.904;2022-07-21T00:45:20;23.70;61.50
21214;DHT22;10764;50.850;2.904;2022-07-21T00:47:47;23.80;61.50
21214;DHT22;10764;50.850;2.904;2022-07-21T00:50:17;23.80;61.50
21214;DHT22;10764;50.850;2.904;2022-07-21T00:52:45;25.90;63.80
21214;DHT22;10764;50.850;2.904;2022-07-21T00:55:14;23.80;62.60
21214;DHT22;10764;50.850;2.904;2022-07-21T00:57:42;23.80;61.50
21214;DHT22;10764;50.850;2.904;2022-07-21T01:00:20;23.80;61.40
21214;DHT22;10764;50.850;2.904;2022-07-21T01:02:47;23.90;62.10
21214;DHT22;10764;50.850;2.904;2022-07-21T01:05:15;23.80;61.40
21214;DHT22;10764;50.850;2.904;2022-07-21T01:07:44;23.70;61.40
21214;DHT22;10764;50.850;2.904;2022-07-21T01:10:13;23.80;61.50
21214;DHT22;10764;50.850;2.904;2022-07-21T01:12:41;23.80;61.60
21214;DHT22;10764;50.850;2.904;2022-07-21T01:15:10;23.80;61.40
21214;DHT22;10764;50.850;2.904;2022-07-21T01:17:37;23.80;62.50
21214;DHT22;10764;50.850;2.904;2022-07-21T01:20:11;23.80;61.40
21214;DHT22;10764;50.850;2.904;2022-07-21T01:22:40;23.70;62.30
21214;DHT22;10764;50.850;2.904;2022-07-21T01:25:08;24.20;62.50
21214;DHT22;10764;50.850;2.904;2022-07-21T01:27:36;24.00;61.50
21214;DHT22;10764;50.850;2.904;2022-07-21T01:30:04;23.70;61.30
21214;DHT22;10764;50.850;2.904;2022-07-21T01:32:36;23.80;61.40
21214;DHT22;10764;50.850;2.904;2022-07-21T01:35:05;23.70;62.50
21214;DHT22;10764;50.850;2.904;2022-07-21T01:37:38;23.90;61.40
21214;DHT22;10764;50.850;2.904;2022-07-21T01:40:06;23.80;61.40
21214;DHT22;10764;50.850;2.904;2022-07-21T01:42:52;23.80;63.20
21214;DHT22;10764;50.850;2.904;2022-07-21T01:45:22;23.70;61.20
21214;DHT22;10764;50.850;2.904;2022-07-21T01:47:50;23.80;61.40
21214;DHT22;10764;50.850;2.904;2022-07-21T01:50:17;23.70;61.40
21214;DHT22;10764;50.850;2.904;2022-07-21T01:52:47;23.70;61.30
21214;DHT22;10764;50.850;2.904;2022-07-21T01:55:14;23.80;61.40
21214;DHT22;10764;50.850;2.904;2022-07-21T01:57:41;23.70;61.50
21214;DHT22;10764;50.850;2.904;2022-07-21T02:00:08;23.90;61.60
21214;DHT22;10764;50.850;2.904;2022-07-21T02:02:36;23.70;61.80
21214;DHT22;10764;50.850;2.904;2022-07-21T02:05:03;23.90;61.50
21214;DHT22;10764;50.850;2.904;2022-07-21T02:07:30;23.80;61.50
21214;DHT22;10764;50.850;2.904;2022-07-21T02:09:57;23.70;61.50
21214;DHT22;10764;50.850;2.904;2022-07-21T02:12:24;23.80;61.50
21214;DHT22;10764;50.850;2.904;2022-07-21T02:14:51;23.70;61.50
21214;DHT22;10764;50.850;2.904;2022-07-21T02:17:18;23.70;61.50
21214;DHT22;10764;50.850;2.904;2022-07-21T02:19:45;23.70;61.50
21214;DHT22;10764;50.850;2.904;2022-07-21T02:22:12;23.80;61.50
21214;DHT22;10764;50.850;2.904;2022-07-21T02:24:39;23.80;61.50
21214;DHT22;10764;50.850;2.904;2022-07-21T02:27:07;23.80;61.50
21214;DHT22;10764;50.850;2.904;2022-07-21T02:29:34;23.80;61.50
21214;DHT22;10764;50.850;2.904;2022-07-21T02:32:02;23.70;61.50
21214;DHT22;10764;50.850;2.904;2022-07-21T02:34:29;23.70;61.50
21214;DHT22;10764;50.850;2.904;2022-07-21T02:36:56;23.70;61.50
21214;DHT22;10764;50.850;2.904;2022-07-21T02:39:23;23.70;61.50
21214;DHT22;10764;50.850;2.904;2022-07-21T02:41:50;23.70;61.50
21214;DHT22;10764;50.850;2.904;2022-07-21T02:44:17;23.70;61.50
21214;DHT22;10764;50.850;2.904;2022-07-21T02:46:44;23.80;61.60
21214;DHT22;10764;50.850;2.904;2022-07-21T02:49:10;23.80;61.60
21214;DHT22;10764;50.850;2.904;2022-07-21T02:51:37;23.90;61.80
21214;DHT22;10764;50.850;2.904;2022-07-21T02:54:04;23.80;61.70
21214;DHT22;10764;50.850;2.904;2022-07-21T02:56:31;23.80;61.80
21214;DHT22;10764;50.850;2.904;2022-07-21T02:58:58;23.90;61.80
21214;DHT22;10764;50.850;2.904;2022-07-21T03:01:24;24.00;61.90
21214;DHT22;10764;50.850;2.904;2022-07-21T03:03:51;23.60;61.60
21214;DHT22;10764;50.850;2.904;2022-07-21T03:06:19;23.80;61.70
21214;DHT22;10764;50.850;2.904;2022-07-21T03:08:46;23.80;61.80
21214;DHT22;10764;50.850;2.904;2022-07-21T03:11:13;23.50;61.70
21214;DHT22;10764;50.850;2.904;2022-07-21T03:13:39;23.60;61.80
21214;DHT22;10764;50.850;2.904;2022-07-21T03:16:06;23.70;61.90
21214;DHT22;10764;50.850;2.904;2022-07-21T03:18:33;23.80;62.00
21214;DHT22;10764;50.850;2.904;2022-07-21T03:21:01;23.90;62.10
21214;DHT22;10764;50.850;2.904;2022-07-21T03:23:28;23.70;62.00
21214;DHT22;10764;50.850;2.904;2022-07-21T03:25:55;23.70;61.90
21214;DHT22;10764;50.850;2.904;2022-07-21T03:28:22;23.90;62.10
21214;DHT22;10764;50.850;2.904;2022-07-21T03:30:49;23.70;62.10
21214;DHT22;10764;50.850;2.904;2022-07-21T03:33:16;23.80;62.10
21214;DHT22;10764;50.850;2.904;2022-07-21T03:35:43;23.60;62.00
21214;DHT22;10764;50.850;2.904;2022-07-21T03:38:10;23.80;62.10
21214;DHT22;10764;50.850;2.904;2022-07-21T03:40:37;23.70;62.10
21214;DHT22;10764;50.850;2.904;2022-07-21T03:43:06;23.80;62.20
21214;DHT22;10764;50.850;2.904;2022-07-21T03:45:34;23.90;62.20
21214;DHT22;10764;50.850;2.904;2022-07-21T03:48:03;23.90;63.60
21214;DHT22;10764;50.850;2.904;2022-07-21T03:50:31;23.60;62.10
21214;DHT22;10764;50.850;2.904;2022-07-21T03:52:59;23.50;62.10
21214;DHT22;10764;50.850;2.904;2022-07-21T03:55:26;23.60;62.10
21214;DHT22;10764;50.850;2.904;2022-07-21T03:57:56;23.70;62.20
21214;DHT22;10764;50.850;2.904;2022-07-21T04:02:55;23.70;62.20
21214;DHT22;10764;50.850;2.904;2022-07-21T04:05:22;23.90;62.30
21214;DHT22;10764;50.850;2.904;2022-07-21T04:07:50;23.90;62.30
21214;DHT22;10764;50.850;2.904;2022-07-21T04:10:20;23.60;62.40
21214;DHT22;10764;50.850;2.904;2022-07-21T04:12:48;23.80;62.30
21214;DHT22;10764;50.850;2.904;2022-07-21T04:15:16;23.60;62.20
21214;DHT22;10764;50.850;2.904;2022-07-21T04:17:44;23.70;62.20
21214;DHT22;10764;50.850;2.904;2022-07-21T04:20:12;23.70;63.40
21214;DHT22;10764;50.850;2.904;2022-07-21T04:22:42;23.80;62.30
21214;DHT22;10764;50.850;2.904;2022-07-21T04:25:11;23.60;62.20
21214;DHT22;10764;50.850;2.904;2022-07-21T04:27:39;23.80;62.30
21214;DHT22;10764;50.850;2.904;2022-07-21T04:30:08;23.70;62.40
21214;DHT22;10764;50.850;2.904;2022-07-21T04:32:36;23.90;62.40
21214;DHT22;10764;50.850;2.904;2022-07-21T04:35:05;23.50;62.10
21214;DHT22;10764;50.850;2.904;2022-07-21T04:37:32;23.50;62.20
21214;DHT22;10764;50.850;2.904;2022-07-21T04:39:59;23.70;62.30
21214;DHT22;10764;50.850;2.904;2022-07-21T04:42:27;23.70;64.90
21214;DHT22;10764;50.850;2.904;2022-07-21T04:44:54;23.70;62.50
21214;DHT22;10764;50.850;2.904;2022-07-21T04:47:21;23.60;62.40
21214;DHT22;10764;50.850;2.904;2022-07-21T04:49:48;23.80;62.50
21214;DHT22;10764;50.850;2.904;2022-07-21T04:52:15;24.00;62.60
21214;DHT22;10764;50.850;2.904;2022-07-21T04:54:42;23.60;62.40
21214;DHT22;10764;50.850;2.904;2022-07-21T04:57:09;23.60;62.40
21214;DHT22;10764;50.850;2.904;2022-07-21T04:59:36;23.50;62.30
21214;DHT22;10764;50.850;2.904;2022-07-21T05:02:04;23.70;62.70
21214;DHT22;10764;50.850;2.904;2022-07-21T05:04:31;23.80;62.60
21214;DHT22;10764;50.850;2.904;2022-07-21T05:06:58;23.70;62.50
21214;DHT22;10764;50.850;2.904;2022-07-21T05:09:25;23.60;62.50
21214;DHT22;10764;50.850;2.904;2022-07-21T05:11:52;23.60;64.80
21214;DHT22;10764;50.850;2.904;2022-07-21T05:14:19;23.70;64.90
21214;DHT22;10764;50.850;2.904;2022-07-21T05:16:46;23.60;62.60
21214;DHT22;10764;50.850;2.904;2022-07-21T05:19:13;23.80;62.70
21214;DHT22;10764;50.850;2.904;2022-07-21T05:21:40;23.90;62.80
21214;DHT22;10764;50.850;2.904;2022-07-21T05:24:07;23.90;62.80
21214;DHT22;10764;50.850;2.904;2022-07-21T05:26:36;23.90;62.90
21214;DHT22;10764;50.850;2.904;2022-07-21T05:29:03;23.90;62.80
21214;DHT22;10764;50.850;2.904;2022-07-21T05:31:30;23.60;62.70
21214;DHT22;10764;50.850;2.904;2022-07-21T05:33:57;23.90;62.90
21214;DHT22;10764;50.850;2.904;2022-07-21T05:36:23;23.50;62.60
21214;DHT22;10764;50.850;2.904;2022-07-21T05:38:50;23.70;62.70
21214;DHT22;10764;50.850;2.904;2022-07-21T05:41:18;23.50;62.60
21214;DHT22;10764;50.850;2.904;2022-07-21T05:43:45;24.00;63.00
21214;DHT22;10764;50.850;2.904;2022-07-21T05:46:12;23.80;62.90
21214;DHT22;10764;50.850;2.904;2022-07-21T05:48:39;23.60;62.80
21214;DHT22;10764;50.850;2.904;2022-07-21T05:51:06;23.90;63.00
21214;DHT22;10764;50.850;2.904;2022-07-21T05:53:33;23.60;62.90
21214;DHT22;10764;50.850;2.904;2022-07-21T05:56:00;23.60;62.90
21214;DHT22;10764;50.850;2.904;2022-07-21T05:58:27;23.70;63.10
21214;DHT22;10764;50.850;2.904;2022-07-21T06:00:54;23.90;63.10
21214;DHT22;10764;50.850;2.904;2022-07-21T06:03:44;23.80;63.20
21214;DHT22;10764;50.850;2.904;2022-07-21T06:06:12;23.90;63.60
21214;DHT22;10764;50.850;2.904;2022-07-21T06:08:41;23.90;63.50
21214;DHT22;10764;50.850;2.904;2022-07-21T06:11:09;23.70;63.10
21214;DHT22;10764;50.850;2.904;2022-07-21T06:13:37;23.90;63.30
21214;DHT22;10764;50.850;2.904;2022-07-21T06:16:05;23.80;64.40
21214;DHT22;10764;50.850;2.904;2022-07-21T06:18:33;23.80;63.30
21214;DHT22;10764;50.850;2.904;2022-07-21T06:21:00;20.60;61.40
21214;DHT22;10764;50.850;2.904;2022-07-21T06:23:27;23.80;63.50
21214;DHT22;10764;50.850;2.904;2022-07-21T06:25:55;23.60;63.40
21214;DHT22;10764;50.850;2.904;2022-07-21T06:28:22;23.80;63.50
21214;DHT22;10764;50.850;2.904;2022-07-21T06:30:49;23.50;63.40
21214;DHT22;10764;50.850;2.904;2022-07-21T06:33:16;23.90;63.70
21214;DHT22;10764;50.850;2.904;2022-07-21T06:35:43;23.60;63.50
21214;DHT22;10764;50.850;2.904;2022-07-21T06:38:10;23.90;63.80
21214;DHT22;10764;50.850;2.904;2022-07-21T06:40:39;23.80;63.80
21214;DHT22;10764;50.850;2.904;2022-07-21T06:43:09;23.70;63.70
21214;DHT22;10764;50.850;2.904;2022-07-21T06:45:55;23.90;63.70
21214;DHT22;10764;50.850;2.904;2022-07-21T06:48:22;23.80;63.80
21214;DHT22;10764;50.850;2.904;2022-07-21T06:50:50;23.70;63.70
21214;DHT22;10764;50.850;2.904;2022-07-21T06:53:17;23.80;63.90
21214;DHT22;10764;50.850;2.904;2022-07-21T06:55:44;23.60;63.80
21214;DHT22;10764;50.850;2.904;2022-07-21T06:58:16;23.60;63.90
21214;DHT22;10764;50.850;2.904;2022-07-21T07:00:45;23.80;63.80
21214;DHT22;10764;50.850;2.904;2022-07-21T07:03:13;23.80;63.80
21214;DHT22;10764;50.850;2.904;2022-07-21T07:05:41;23.70;63.80
21214;DHT22;10764;50.850;2.904;2022-07-21T07:08:08;23.80;64.00
21214;DHT22;10764;50.850;2.904;2022-07-21T07:10:39;23.70;63.90
21214;DHT22;10764;50.850;2.904;2022-07-21T07:13:07;23.70;64.00
21214;DHT22;10764;50.850;2.904;2022-07-21T07:15:55;23.70;64.00
21214;DHT22;10764;50.850;2.904;2022-07-21T07:18:22;23.60;63.90
21214;DHT22;10764;50.850;2.904;2022-07-21T07:20:51;23.70;64.10
21214;DHT22;10764;50.850;2.904;2022-07-21T07:23:18;23.70;64.20
21214;DHT22;10764;50.850;2.904;2022-07-21T07:25:45;23.80;64.40
21214;DHT22;10764;50.850;2.904;2022-07-21T07:28:12;23.70;64.30
21214;DHT22;10764;50.850;2.904;2022-07-21T07:30:39;23.70;64.20
21214;DHT22;10764;50.850;2.904;2022-07-21T07:33:07;23.70;64.60
21214;DHT22;10764;50.850;2.904;2022-07-21T07:35:33;23.90;65.10
21214;DHT22;10764;50.850;2.904;2022-07-21T07:38:00;23.70;65.10
21214;DHT22;10764;50.850;2.904;2022-07-21T07:40:27;23.70;65.30
21214;DHT22;10764;50.850;2.904;2022-07-21T07:42:54;23.80;65.30
21214;DHT22;10764;50.850;2.904;2022-07-21T07:45:21;23.70;65.10
21214;DHT22;10764;50.850;2.904;2022-07-21T07:47:49;23.60;65.40
21214;DHT22;10764;50.850;2.904;2022-07-21T07:50:16;23.70;65.10
21214;DHT22;10764;50.850;2.904;2022-07-21T07:52:44;23.70;65.00
21214;DHT22;10764;50.850;2.904;2022-07-21T07:55:12;23.70;65.00
21214;DHT22;10764;50.850;2.904;2022-07-21T07:57:40;23.70;64.90
21214;DHT22;10764;50.850;2.904;2022-07-21T08:00:12;23.70;64.80
21214;DHT22;10764;50.850;2.904;2022-07-21T08:02:59;23.80;65.80
21214;DHT22;10764;50.850;2.904;2022-07-21T08:05:27;23.80;64.80
21214;DHT22;10764;50.850;2.904;2022-07-21T08:07:54;23.90;64.60
21214;DHT22;10764;50.850;2.904;2022-07-21T08:10:20;23.80;64.70
21214;DHT22;10764;50.850;2.904;2022-07-21T08:13:07;23.80;64.60
21214;DHT22;10764;50.850;2.904;2022-07-21T08:15:36;23.90;65.20
21214;DHT22;10764;50.850;2.904;2022-07-21T08:18:03;23.90;64.60
21214;DHT22;10764;50.850;2.904;2022-07-21T08:20:30;23.70;64.50
21214;DHT22;10764;50.850;2.904;2022-07-21T08:22:57;23.90;64.60
21214;DHT22;10764;50.850;2.904;2022-07-21T08:25:24;23.80;64.60
21214;DHT22;10764;50.850;2.904;2022-07-21T08:27:51;23.80;64.40
21214;DHT22;10764;50.850;2.904;2022-07-21T08:30:18;23.80;64.40
21214;DHT22;10764;50.850;2.904;2022-07-21T08:32:50;23.80;64.40
21214;DHT22;10764;50.850;2.904;2022-07-21T08:35:17;23.70;64.20
21214;DHT22;10764;50.850;2.904;2022-07-21T08:38:02;23.80;64.30
21214;DHT22;10764;50.850;2.904;2022-07-21T08:40:32;23.80;64.30
21214;DHT22;10764;50.850;2.904;2022-07-21T08:43:00;24.20;65.40
21214;DHT22;10764;50.850;2.904;2022-07-21T08:45:27;23.80;64.80
21214;DHT22;10764;50.850;2.904;2022-07-21T08:47:58;23.90;64.80
21214;DHT22;10764;50.850;2.904;2022-07-21T08:50:31;23.80;64.70
21214;DHT22;10764;50.850;2.904;2022-07-21T08:52:58;23.80;64.30
21214;DHT22;10764;50.850;2.904;2022-07-21T08:55:34;23.80;65.30
21214;DHT22;10764;50.850;2.904;2022-07-21T08:58:03;23.80;64.80
21214;DHT22;10764;50.850;2.904;2022-07-21T09:00:37;23.80;64.80
21214;DHT22;10764;50.850;2.904;2022-07-21T09:03:16;23.90;64.30
21214;DHT22;10764;50.850;2.904;2022-07-21T09:08:46;23.80;64.30
21214;DHT22;10764;50.850;2.904;2022-07-21T09:11:27;23.90;64.30
21214;DHT22;10764;50.850;2.904;2022-07-21T09:16:54;23.90;65.10
21214;DHT22;10764;50.850;2.904;2022-07-21T09:19:33;23.80;64.70
21214;DHT22;10764;50.850;2.904;2022-07-21T09:22:06;23.80;64.80
21214;DHT22;10764;50.850;2.904;2022-07-21T09:24:36;23.80;64.70
21214;DHT22;10764;50.850;2.904;2022-07-21T09:29:57;23.80;64.10
21214;DHT22;10764;50.850;2.904;2022-07-21T09:32:32;22.00;62.90
21214;DHT22;10764;50.850;2.904;2022-07-21T09:35:08;23.80;64.50
21214;DHT22;10764;50.850;2.904;2022-07-21T09:37:41;23.80;64.40
21214;DHT22;10764;50.850;2.904;2022-07-21T09:40:11;24.20;65.00
21214;DHT22;10764;50.850;2.904;2022-07-21T09:42:46;23.80;64.20
21214;DHT22;10764;50.850;2.904;2022-07-21T09:45:16;23.90;64.50
21214;DHT22;10764;50.850;2.904;2022-07-21T09:47:44;23.60;64.90
21214;DHT22;10764;50.850;2.904;2022-07-21T09:50:14;23.80;64.10
21214;DHT22;10764;50.850;2.904;2022-07-21T09:52:54;23.50;63.70
21214;DHT22;10764;50.850;2.904;2022-07-21T09:55:23;23.80;64.00
21214;DHT22;10764;50.850;2.904;2022-07-21T09:57:50;23.90;64.60
21214;DHT22;10764;50.850;2.904;2022-07-21T10:00:19;23.90;63.80
21214;DHT22;10764;50.850;2.904;2022-07-21T10:02:47;23.90;63.90
21214;DHT22;10764;50.850;2.904;2022-07-21T10:05:20;23.90;63.90
21214;DHT22;10764;50.850;2.904;2022-07-21T10:07:57;23.90;63.40
21214;DHT22;10764;50.850;2.904;2022-07-21T10:10:28;23.90;63.80
21214;DHT22;10764;50.850;2.904;2022-07-21T10:13:15;23.80;64.40
21214;DHT22;10764;50.850;2.904;2022-07-21T10:15:49;23.90;63.90
21214;DHT22;10764;50.850;2.904;2022-07-21T10:18:31;23.90;63.20
21214;DHT22;10764;50.850;2.904;2022-07-21T10:23:52;23.80;63.10
21214;DHT22;10764;50.850;2.904;2022-07-21T10:26:20;25.30;64.40
21214;DHT22;10764;50.850;2.904;2022-07-21T10:28:48;23.90;63.60
21214;DHT22;10764;50.850;2.904;2022-07-21T10:31:19;23.90;64.20
21214;DHT22;10764;50.850;2.904;2022-07-21T10:41:42;23.90;63.00
21214;DHT22;10764;50.850;2.904;2022-07-21T10:55:19;23.90;62.60
21214;DHT22;10764;50.850;2.904;2022-07-21T11:03:31;24.00;62.20
21214;DHT22;10764;50.850;2.904;2022-07-21T11:08:37;24.10;61.90
21214;DHT22;10764;50.850;2.904;2022-07-21T11:11:21;23.90;61.70
21214;DHT22;10764;50.850;2.904;2022-07-21T11:22:01;24.00;61.40
21214;DHT22;10764;50.850;2.904;2022-07-21T11:24:29;24.20;61.90
21214;DHT22;10764;50.850;2.904;2022-07-21T11:26:59;24.00;61.50
21214;DHT22;10764;50.850;2.904;2022-07-21T11:29:29;24.10;61.50
21214;DHT22;10764;50.850;2.904;2022-07-21T11:31:57;24.00;61.30
21214;DHT22;10764;50.850;2.904;2022-07-21T11:37:01;24.00;61.00
21214;DHT22;10764;50.850;2.904;2022-07-21T11:42:15;23.90;61.00
21214;DHT22;10764;50.850;2.904;2022-07-21T11:44:42;24.10;61.20
21214;DHT22;10764;50.850;2.904;2022-07-21T11:47:12;24.00;61.10
21214;DHT22;10764;50.850;2.904;2022-07-21T11:49:40;24.10;61.40
21214;DHT22;10764;50.850;2.904;2022-07-21T11:52:11;24.10;61.10
21214;DHT22;10764;50.850;2.904;2022-07-21T11:54:43;24.20;61.30
21214;DHT22;10764;50.850;2.904;2022-07-21T12:04:55;24.00;60.90
21214;DHT22;10764;50.850;2.904;2022-07-21T12:09:59;24.00;60.90
21214;DHT22;10764;50.850;2.904;2022-07-21T12:15:17;24.30;60.80
21214;DHT22;10764;50.850;2.904;2022-07-21T12:17:54;24.20;60.70
21214;DHT22;10764;50.850;2.904;2022-07-21T12:20:36;24.30;60.80
21214;DHT22;10764;50.850;2.904;2022-07-21T12:23:19;24.20;60.60
21214;DHT22;10764;50.850;2.904;2022-07-21T12:25:47;24.20;60.70
21214;DHT22;10764;50.850;2.904;2022-07-21T12:28:28;24.20;60.70
21214;DHT22;10764;50.850;2.904;2022-07-21T12:31:12;24.20;60.60
21214;DHT22;10764;50.850;2.904;2022-07-21T12:33:41;24.00;60.50
21214;DHT22;10764;50.850;2.904;2022-07-21T12:36:28;24.10;60.60
21214;DHT22;10764;50.850;2.904;2022-07-21T12:38:55;24.10;60.50
21214;DHT22;10764;50.850;2.904;2022-07-21T12:43:58;24.30;60.50
21214;DHT22;10764;50.850;2.904;2022-07-21T12:46:30;24.10;60.50
21214;DHT22;10764;50.850;2.904;2022-07-21T12:49:08;24.10;60.50
21214;DHT22;10764;50.850;2.904;2022-07-21T12:54:08;24.30;60.50
21214;DHT22;10764;50.850;2.904;2022-07-21T12:56:36;23.90;60.20
21214;DHT22;10764;50.850;2.904;2022-07-21T12:59:03;23.90;60.20
21214;DHT22;10764;50.850;2.904;2022-07-21T13:01:32;24.20;60.40
21214;DHT22;10764;50.850;2.904;2022-07-21T13:04:02;24.10;60.30
21214;DHT22;10764;50.850;2.904;2022-07-21T13:06:30;24.00;60.30
21214;DHT22;10764;50.850;2.904;2022-07-21T13:08:57;24.20;60.40
21214;DHT22;10764;50.850;2.904;2022-07-21T13:18:54;24.20;60.30
21214;DHT22;10764;50.850;2.904;2022-07-21T13:21:21;24.10;60.20
21214;DHT22;10764;50.850;2.904;2022-07-21T13:23:49;24.30;60.40
21214;DHT22;10764;50.850;2.904;2022-07-21T13:26:16;24.10;60.20
21214;DHT22;10764;50.850;2.904;2022-07-21T13:28:43;24.10;60.20
21214;DHT22;10764;50.850;2.904;2022-07-21T13:31:10;24.10;60.20
21214;DHT22;10764;50.850;2.904;2022-07-21T13:33:37;24.30;60.30
21214;DHT22;10764;50.850;2.904;2022-07-21T13:36:08;24.20;60.00
21214;DHT22;10764;50.850;2.904;2022-07-21T13:38:36;24.20;60.00
21214;DHT22;10764;50.850;2.904;2022-07-21T13:41:03;24.20;60.00
21214;DHT22;10764;50.850;2.904;2022-07-21T13:43:51;24.30;59.90
21214;DHT22;10764;50.850;2.904;2022-07-21T13:46:19;24.10;60.20
21214;DHT22;10764;50.850;2.904;2022-07-21T13:51:15;24.10;60.00
21214;DHT22;10764;50.850;2.904;2022-07-21T13:53:44;24.10;60.00
21214;DHT22;10764;50.850;2.904;2022-07-21T13:56:12;24.50;60.40
21214;DHT22;10764;50.850;2.904;2022-07-21T13:58:40;24.10;59.90
21214;DHT22;10764;50.850;2.904;2022-07-21T14:01:08;24.30;60.00
21214;DHT22;10764;50.850;2.904;2022-07-21T14:03:36;24.10;60.10
21214;DHT22;10764;50.850;2.904;2022-07-21T14:08:33;24.20;60.00
21214;DHT22;10764;50.850;2.904;2022-07-21T14:11:00;24.30;60.10
21214;DHT22;10764;50.850;2.904;2022-07-21T14:13:27;24.00;59.80
21214;DHT22;10764;50.850;2.904;2022-07-21T14:18:21;24.20;60.10
21214;DHT22;10764;50.850;2.904;2022-07-21T14:20:48;24.10;60.00
21214;DHT22;10764;50.850;2.904;2022-07-21T14:23:20;24.30;60.10
21214;DHT22;10764;50.850;2.904;2022-07-21T14:25:49;24.40;60.30
21214;DHT22;10764;50.850;2.904;2022-07-21T14:33:12;24.00;60.70
21214;DHT22;10764;50.850;2.904;2022-07-21T14:38:06;24.40;60.70
21214;DHT22;10764;50.850;2.904;2022-07-21T14:43:01;24.00;60.60
21214;DHT22;10764;50.850;2.904;2022-07-21T14:47:57;24.30;60.60
21214;DHT22;10764;50.850;2.904;2022-07-21T14:50:28;24.30;60.60
21214;DHT22;10764;50.850;2.904;2022-07-21T14:55:34;24.40;60.50
21214;DHT22;10764;50.850;2.904;2022-07-21T15:03:02;24.40;61.10
21214;DHT22;10764;50.850;2.904;2022-07-21T15:05:29;24.00;60.90
21214;DHT22;10764;50.850;2.904;2022-07-21T15:07:57;24.30;61.00
21214;DHT22;10764;50.850;2.904;2022-07-21T15:10:24;24.10;60.20
21214;DHT22;10764;50.850;2.904;2022-07-21T15:30:13;24.20;60.30
21214;DHT22;10764;50.850;2.904;2022-07-21T15:37:40;24.10;60.00
21214;DHT22;10764;50.850;2.904;2022-07-21T15:40:07;24.30;60.00
21214;DHT22;10764;50.850;2.904;2022-07-21T15:42:45;24.10;59.90
21214;DHT22;10764;50.850;2.904;2022-07-21T15:45:13;24.40;59.80
21214;DHT22;10764;50.850;2.904;2022-07-21T15:47:40;24.00;59.80
21214;DHT22;10764;50.850;2.904;2022-07-21T15:50:07;24.10;59.70
21214;DHT22;10764;50.850;2.904;2022-07-21T15:55:08;24.10;59.70
21214;DHT22;10764;50.850;2.904;2022-07-21T15:57:37;24.00;59.70
21214;DHT22;10764;50.850;2.904;2022-07-21T16:00:07;24.10;59.60
21214;DHT22;10764;50.850;2.904;2022-07-21T16:02:42;24.60;60.10
21214;DHT22;10764;50.850;2.904;2022-07-21T16:05:14;24.20;59.70
21214;DHT22;10764;50.850;2.904;2022-07-21T16:07:43;24.10;59.60
21214;DHT22;10764;50.850;2.904;2022-07-21T16:10:12;24.00;59.60
21214;DHT22;10764;50.850;2.904;2022-07-21T16:12:40;24.10;59.80
21214;DHT22;10764;50.850;2.904;2022-07-21T16:17:35;24.20;59.30
21214;DHT22;10764;50.850;2.904;2022-07-21T16:20:04;24.10;59.20
21214;DHT22;10764;50.850;2.904;2022-07-21T16:22:39;24.30;59.30
21214;DHT22;10764;50.850;2.904;2022-07-21T16:25:08;24.10;59.10
21214;DHT22;10764;50.850;2.904;2022-07-21T16:27:35;24.10;59.20
21214;DHT22;10764;50.850;2.904;2022-07-21T16:30:03;24.10;59.10
21214;DHT22;10764;50.850;2.904;2022-07-21T16:32:30;24.20;59.10
21214;DHT22;10764;50.850;2.904;2022-07-21T16:34:57;23.90;60.50
21214;DHT22;10764;50.850;2.904;2022-07-21T16:37:24;24.20;59.10
21214;DHT22;10764;50.850;2.904;2022-07-21T16:39:51;24.40;59.40
21214;DHT22;10764;50.850;2.904;2022-07-21T16:42:18;23.90;59.00
21214;DHT22;10764;50.850;2.904;2022-07-21T16:44:45;24.40;59.30
21214;DHT22;10764;50.850;2.904;2022-07-21T16:49:39;23.90;59.00
21214;DHT22;10764;50.850;2.904;2022-07-21T16:52:06;24.10;59.00
21214;DHT22;10764;50.850;2.904;2022-07-21T16:54:34;24.00;59.00
21214;DHT22;10764;50.850;2.904;2022-07-21T16:59:28;24.10;59.00
21214;DHT22;10764;50.850;2.904;2022-07-21T17:01:55;24.10;59.00
21214;DHT22;10764;50.850;2.904;2022-07-21T17:06:49;23.90;58.90
21214;DHT22;10764;50.850;2.904;2022-07-21T17:09:16;23.90;58.80
21214;DHT22;10764;50.850;2.904;2022-07-21T17:11:43;23.90;58.90
21214;DHT22;10764;50.850;2.904;2022-07-21T17:14:10;24.00;58.80
21214;DHT22;10764;50.850;2.904;2022-07-21T17:16:37;24.00;60.50
21214;DHT22;10764;50.850;2.904;2022-07-21T17:19:04;24.20;60.50
21214;DHT22;10764;50.850;2.904;2022-07-21T17:21:31;24.10;59.00
21214;DHT22;10764;50.850;2.904;2022-07-21T17:23:57;24.10;58.80
21214;DHT22;10764;50.850;2.904;2022-07-21T17:26:24;24.30;58.90
21214;DHT22;10764;50.850;2.904;2022-07-21T17:28:51;24.00;58.60
21214;DHT22;10764;50.850;2.904;2022-07-21T17:31:18;24.20;58.70
21214;DHT22;10764;50.850;2.904;2022-07-21T17:33:46;24.10;58.70
21214;DHT22;10764;50.850;2.904;2022-07-21T17:36:13;23.90;58.60
21214;DHT22;10764;50.850;2.904;2022-07-21T17:38:40;24.20;58.90
21214;DHT22;10764;50.850;2.904;2022-07-21T17:41:07;24.00;58.70
21214;DHT22;10764;50.850;2.904;2022-07-21T17:43:34;24.10;58.70
21214;DHT22;10764;50.850;2.904;2022-07-21T17:50:58;24.30;59.00
21214;DHT22;10764;50.850;2.904;2022-07-21T17:55:53;23.90;58.70
21214;DHT22;10764;50.850;2.904;2022-07-21T18:03:33;24.30;58.80
21214;DHT22;10764;50.850;2.904;2022-07-21T18:06:00;24.00;58.70
21214;DHT22;10764;50.850;2.904;2022-07-21T18:10:54;23.90;57.60
21214;DHT22;10764;50.850;2.904;2022-07-21T18:18:18;24.00;59.00
21214;DHT22;10764;50.850;2.904;2022-07-21T18:23:13;24.10;58.80
21214;DHT22;10764;50.850;2.904;2022-07-21T18:25:40;23.80;57.90